sensor_id;sensor_type;location;lat;lon;timestamp;temperature;humidity
37268;DHT22;23154;52.542;13.362;2023-02-15T00:00:22;2.50;99.90
37268;DHT22;23154;52.542;13.362;2023-02-15T00:02:47;2.50;99.90
37268;DHT22;23154;52.542;13.362;2023-02-15T00:05:13;2.80;99.90
37268;DHT22;23154;52.542;13.362;2023-02-15T00:07:38;2.70;99.90
37268;DHT22;23154;52.542;13.362;2023-02-15T00:10:04;2.50;99.90
37268;DHT22;23154;52.542;13.362;2023-02-15T00:12:30;2.50;99.90
37268;DHT22;23154;52.542;13.362;2023-02-15T00:14:55;2.40;99.90
37268;DHT22;23154;52.542;13.362;2023-02-15T00:17:21;2.30;99.90
37268;DHT22;23154;52.542;13.362;2023-02-15T00:19:46;2.30;99.90
37268;DHT22;23154;52.542;13.362;2023-02-15T00:22:12;2.20;99.90
37268;DHT22;23154;52.542;13.362;2023-02-15T00:24:38;2.30;99.90
37268;DHT22;23154;52.542;13.362;2023-02-15T00:27:03;2.20;99.90
37268;DHT22;23154;52.542;13.362;2023-02-15T00:29:28;2.40;99.90
37268;DHT22;23154;52.542;13.362;2023-02-15T00:31:54;2.40;99.90
37268;DHT22;23154;52.542;13.362;2023-02-15T00:34:20;2.40;99.90
37268;DHT22;23154;52.542;13.362;2023-02-15T00:36:46;2.40;99.90
37268;DHT22;23154;52.542;13.362;2023-02-15T00:39:12;2.40;99.90
37268;DHT22;23154;52.542;13.362;2023-02-15T00:41:38;2.40;99.90
37268;DHT22;23154;52.542;13.362;2023-02-15T00:44:04;2.30;99.90
37268;DHT22;23154;52.542;13.362;2023-02-15T00:46:29;2.30;99.90
37268;DHT22;23154;52.542;13.362;2023-02-15T00:48:55;2.20;99.90
37268;DHT22;23154;52.542;13.362;2023-02-15T00:51:20;2.10;99.90
37268;DHT22;23154;52.542;13.362;2023-02-15T00:53:46;2.10;99.90
37268;DHT22;23154;52.542;13.362;2023-02-15T00:56:12;2.00;99.90
37268;DHT22;23154;52.542;13.362;2023-02-15T00:58:37;2.00;99.90
37268;DHT22;23154;52.542;13.362;2023-02-15T01:01:04;1.90;99.90
37268;DHT22;23154;52.542;13.362;2023-02-15T01:03:30;1.90;99.90
37268;DHT22;23154;52.542;13.362;2023-02-15T01:05:56;1.90;99.90
37268;DHT22;23154;52.542;13.362;2023-02-15T01:08:21;1.90;99.90
37268;DHT22;23154;52.542;13.362;2023-02-15T01:10:47;1.80;99.90
37268;DHT22;23154;52.542;13.362;2023-02-15T01:13:13;1.80;99.90
37268;DHT22;23154;52.542;13.362;2023-02-15T01:15:39;1.90;99.90
37268;DHT22;23154;52.542;13.362;2023-02-15T01:18:05;1.80;99.90
37268;DHT22;23154;52.542;13.362;2023-02-15T01:20:33;1.80;99.90
37268;DHT22;23154;52.542;13.362;2023-02-15T01:22:59;1.80;99.90
37268;DHT22;23154;52.542;13.362;2023-02-15T01:25:24;1.70;99.90
37268;DHT22;23154;52.542;13.362;2023-02-15T01:27:50;1.60;99.90
37268;DHT22;23154;52.542;13.362;2023-02-15T01:30:15;1.70;99.90
37268;DHT22;23154;52.542;13.362;2023-02-15T01:32:41;1.70;99.90
37268;DHT22;23154;52.542;13.362;2023-02-15T01:35:08;1.70;99.90
37268;DHT22;23154;52.542;13.362;2023-02-15T01:37:33;1.70;99.90
37268;DHT22;23154;52.542;13.362;2023-02-15T01:40:00;1.60;99.90
37268;DHT22;23154;52.542;13.362;2023-02-15T01:42:26;1.60;99.90
37268;DHT22;23154;52.542;13.362;2023-02-15T01:44:53;1.60;99.90
37268;DHT22;23154;52.542;13.362;2023-02-15T01:47:21;1.60;99.90
37268;DHT22;23154;52.542;13.362;2023-02-15T01:49:48;1.60;99.90
37268;DHT22;23154;52.542;13.362;2023-02-15T01:52:17;1.50;99.90
37268;DHT22;23154;52.542;13.362;2023-02-15T01:54:43;1.50;99.90
37268;DHT22;23154;52.542;13.362;2023-02-15T01:57:19;1.50;99.90
37268;DHT22;23154;52.542;13.362;2023-02-15T01:59:49;1.70;99.90
37268;DHT22;23154;52.542;13.362;2023-02-15T02:02:16;1.60;99.90
37268;DHT22;23154;52.542;13.362;2023-02-15T02:04:49;1.70;99.90
37268;DHT22;23154;52.542;13.362;2023-02-15T02:07:16;1.70;99.90
37268;DHT22;23154;52.542;13.362;2023-02-15T02:09:42;1.80;99.90
37268;DHT22;23154;52.542;13.362;2023-02-15T02:12:08;1.70;99.90
37268;DHT22;23154;52.542;13.362;2023-02-15T02:14:34;1.80;99.90
37268;DHT22;23154;52.542;13.362;2023-02-15T02:20:08;1.70;99.90
37268;DHT22;23154;52.542;13.362;2023-02-15T02:33:07;1.80;99.90
37268;DHT22;23154;52.542;13.362;2023-02-15T02:35:40;1.90;99.90
37268;DHT22;23154;52.542;13.362;2023-02-15T02:40:56;1.90;99.90
37268;DHT22;23154;52.542;13.362;2023-02-15T02:46:31;2.10;99.90
37268;DHT22;23154;52.542;13.362;2023-02-15T02:49:00;1.90;99.90
37268;DHT22;23154;52.542;13.362;2023-02-15T02:51:26;1.90;99.90
37268;DHT22;23154;52.542;13.362;2023-02-15T02:53:53;1.90;99.90
37268;DHT22;23154;52.542;13.362;2023-02-15T02:56:38;2.00;99.90
37268;DHT22;23154;52.542;13.362;2023-02-15T02:59:09;2.00;99.90
37268;DHT22;23154;52.542;13.362;2023-02-15T03:01:42;1.90;99.90
37268;DHT22;23154;52.542;13.362;2023-02-15T03:04:19;1.90;99.90
37268;DHT22;23154;52.542;13.362;2023-02-15T03:06:57;1.90;99.90
37268;DHT22;23154;52.542;13.362;2023-02-15T03:09:28;1.90;99.90
37268;DHT22;23154;52.542;13.362;2023-02-15T03:12:11;1.90;99.90
37268;DHT22;23154;52.542;13.362;2023-02-15T03:14:37;1.80;99.90
37268;DHT22;23154;52.542;13.362;2023-02-15T03:17:03;1.80;99.90
37268;DHT22;23154;52.542;13.362;2023-02-15T03:19:30;1.70;99.90
37268;DHT22;23154;52.542;13.362;2023-02-15T03:22:01;1.60;99.90
37268;DHT22;23154;52.542;13.362;2023-02-15T03:24:35;1.60;99.90
37268;DHT22;23154;52.542;13.362;2023-02-15T03:27:02;1.60;99.90
37268;DHT22;23154;52.542;13.362;2023-02-15T03:29:30;1.60;99.90
37268;DHT22;23154;52.542;13.362;2023-02-15T03:31:58;1.50;99.90
37268;DHT22;23154;52.542;13.362;2023-02-15T03:34:24;1.50;99.90
37268;DHT22;23154;52.542;13.362;2023-02-15T03:36:52;1.40;99.90
37268;DHT22;23154;52.542;13.362;2023-02-15T03:39:20;1.30;99.90
37268;DHT22;23154;52.542;13.362;2023-02-15T03:42:08;1.30;99.90
37268;DHT22;23154;52.542;13.362;2023-02-15T03:44:38;1.30;99.90
37268;DHT22;23154;52.542;13.362;2023-02-15T03:47:15;1.30;99.90
37268;DHT22;23154;52.542;13.362;2023-02-15T03:49:43;1.30;99.90
37268;DHT22;23154;52.542;13.362;2023-02-15T03:52:11;1.20;99.90
37268;DHT22;23154;52.542;13.362;2023-02-15T03:54:37;1.10;99.90
37268;DHT22;23154;52.542;13.362;2023-02-15T03:57:11;1.10;99.90
37268;DHT22;23154;52.542;13.362;2023-02-15T03:59:56;1.10;99.90
37268;DHT22;23154;52.542;13.362;2023-02-15T04:05:12;1.00;99.90
37268;DHT22;23154;52.542;13.362;2023-02-15T04:07:37;0.90;99.90
37268;DHT22;23154;52.542;13.362;2023-02-15T04:10:03;0.80;99.90
37268;DHT22;23154;52.542;13.362;2023-02-15T04:12:47;0.80;99.90
37268;DHT22;23154;52.542;13.362;2023-02-15T04:15:13;0.70;99.90
37268;DHT22;23154;52.542;13.362;2023-02-15T04:17:57;0.90;99.90
37268;DHT22;23154;52.542;13.362;2023-02-15T04:20:22;0.80;99.90
37268;DHT22;23154;52.542;13.362;2023-02-15T04:23:07;0.90;99.90
37268;DHT22;23154;52.542;13.362;2023-02-15T04:25:51;0.80;99.90
37268;DHT22;23154;52.542;13.362;2023-02-15T04:28:16;0.80;99.90
37268;DHT22;23154;52.542;13.362;2023-02-15T04:30:42;0.70;99.90
37268;DHT22;23154;52.542;13.362;2023-02-15T04:33:07;0.60;99.90
37268;DHT22;23154;52.542;13.362;2023-02-15T04:35:33;0.50;99.90
37268;DHT22;23154;52.542;13.362;2023-02-15T04:37:59;0.60;99.90
37268;DHT22;23154;52.542;13.362;2023-02-15T04:40:24;0.60;99.90
37268;DHT22;23154;52.542;13.362;2023-02-15T04:42:50;0.50;99.90
37268;DHT22;23154;52.542;13.362;2023-02-15T04:45:15;0.50;99.90
37268;DHT22;23154;52.542;13.362;2023-02-15T04:47:41;0.50;99.90
37268;DHT22;23154;52.542;13.362;2023-02-15T04:50:07;0.60;99.90
37268;DHT22;23154;52.542;13.362;2023-02-15T04:52:32;0.70;99.90
37268;DHT22;23154;52.542;13.362;2023-02-15T04:54:58;0.80;99.90
37268;DHT22;23154;52.542;13.362;2023-02-15T04:57:23;0.80;99.90
37268;DHT22;23154;52.542;13.362;2023-02-15T04:59:49;0.80;99.90
37268;DHT22;23154;52.542;13.362;2023-02-15T05:02:14;0.70;99.90
37268;DHT22;23154;52.542;13.362;2023-02-15T05:04:40;0.80;99.90
37268;DHT22;23154;52.542;13.362;2023-02-15T05:07:05;0.80;99.90
37268;DHT22;23154;52.542;13.362;2023-02-15T05:09:31;0.70;99.90
37268;DHT22;23154;52.542;13.362;2023-02-15T05:11:56;0.60;99.90
37268;DHT22;23154;52.542;13.362;2023-02-15T05:14:22;0.70;99.90
37268;DHT22;23154;52.542;13.362;2023-02-15T05:16:47;0.70;99.90
37268;DHT22;23154;52.542;13.362;2023-02-15T05:19:13;0.70;99.90
37268;DHT22;23154;52.542;13.362;2023-02-15T05:21:38;0.50;99.90
37268;DHT22;23154;52.542;13.362;2023-02-15T05:24:04;0.50;99.90
37268;DHT22;23154;52.542;13.362;2023-02-15T05:26:49;0.40;99.90
37268;DHT22;23154;52.542;13.362;2023-02-15T05:29:34;0.40;99.90
37268;DHT22;23154;52.542;13.362;2023-02-15T05:31:59;0.40;99.90
37268;DHT22;23154;52.542;13.362;2023-02-15T05:34:25;0.40;99.90
37268;DHT22;23154;52.542;13.362;2023-02-15T05:36:50;0.30;99.90
37268;DHT22;23154;52.542;13.362;2023-02-15T05:39:16;0.20;99.90
37268;DHT22;23154;52.542;13.362;2023-02-15T05:41:41;0.20;99.90
37268;DHT22;23154;52.542;13.362;2023-02-15T05:44:06;0.20;99.90
37268;DHT22;23154;52.542;13.362;2023-02-15T05:46:32;0.20;99.90
37268;DHT22;23154;52.542;13.362;2023-02-15T05:48:57;0.10;99.90
37268;DHT22;23154;52.542;13.362;2023-02-15T05:51:23;0.20;99.90
37268;DHT22;23154;52.542;13.362;2023-02-15T05:53:48;0.20;99.90
37268;DHT22;23154;52.542;13.362;2023-02-15T05:56:14;0.20;99.90
37268;DHT22;23154;52.542;13.362;2023-02-15T05:58:40;0.10;99.90
37268;DHT22;23154;52.542;13.362;2023-02-15T06:01:13;0.10;99.90
37268;DHT22;23154;52.542;13.362;2023-02-15T06:03:39;0.00;99.90
37268;DHT22;23154;52.542;13.362;2023-02-15T06:06:05;0.10;99.90
37268;DHT22;23154;52.542;13.362;2023-02-15T06:08:31;0.10;99.90
37268;DHT22;23154;52.542;13.362;2023-02-15T06:10:57;0.10;99.90
37268;DHT22;23154;52.542;13.362;2023-02-15T06:13:23;0.10;99.90
37268;DHT22;23154;52.542;13.362;2023-02-15T06:15:48;0.20;99.90
37268;DHT22;23154;52.542;13.362;2023-02-15T06:18:14;0.30;99.90
37268;DHT22;23154;52.542;13.362;2023-02-15T06:20:39;0.30;99.90
37268;DHT22;23154;52.542;13.362;2023-02-15T06:23:05;0.40;99.90
37268;DHT22;23154;52.542;13.362;2023-02-15T06:25:30;0.40;99.90
37268;DHT22;23154;52.542;13.362;2023-02-15T06:27:56;0.50;99.90
37268;DHT22;23154;52.542;13.362;2023-02-15T06:30:21;0.50;99.90
37268;DHT22;23154;52.542;13.362;2023-02-15T06:32:47;0.50;99.90
37268;DHT22;23154;52.542;13.362;2023-02-15T06:35:12;0.50;99.90
37268;DHT22;23154;52.542;13.362;2023-02-15T06:37:38;0.50;99.90
37268;DHT22;23154;52.542;13.362;2023-02-15T06:40:04;0.50;99.90
37268;DHT22;23154;52.542;13.362;2023-02-15T06:42:29;0.40;99.90
37268;DHT22;23154;52.542;13.362;2023-02-15T06:44:55;0.40;99.90
37268;DHT22;23154;52.542;13.362;2023-02-15T06:47:20;0.40;99.90
37268;DHT22;23154;52.542;13.362;2023-02-15T06:49:46;0.40;99.90
37268;DHT22;23154;52.542;13.362;2023-02-15T06:52:11;0.50;99.90
37268;DHT22;23154;52.542;13.362;2023-02-15T06:54:37;0.60;99.90
37268;DHT22;23154;52.542;13.362;2023-02-15T06:57:02;0.70;99.90
37268;DHT22;23154;52.542;13.362;2023-02-15T06:59:28;0.70;99.90
37268;DHT22;23154;52.542;13.362;2023-02-15T07:01:53;0.60;99.90
37268;DHT22;23154;52.542;13.362;2023-02-15T07:04:19;0.70;99.90
37268;DHT22;23154;52.542;13.362;2023-02-15T07:06:44;0.70;99.90
37268;DHT22;23154;52.542;13.362;2023-02-15T07:09:11;0.80;99.90
37268;DHT22;23154;52.542;13.362;2023-02-15T07:11:38;0.70;99.90
37268;DHT22;23154;52.542;13.362;2023-02-15T07:14:22;0.70;99.90
37268;DHT22;23154;52.542;13.362;2023-02-15T07:16:47;0.80;99.90
37268;DHT22;23154;52.542;13.362;2023-02-15T07:19:13;0.80;99.90
37268;DHT22;23154;52.542;13.362;2023-02-15T07:21:38;0.90;99.90
37268;DHT22;23154;52.542;13.362;2023-02-15T07:24:04;1.10;99.90
37268;DHT22;23154;52.542;13.362;2023-02-15T07:26:33;1.00;99.90
37268;DHT22;23154;52.542;13.362;2023-02-15T07:28:58;0.90;99.90
37268;DHT22;23154;52.542;13.362;2023-02-15T07:31:24;0.90;99.90
37268;DHT22;23154;52.542;13.362;2023-02-15T07:33:49;0.80;99.90
37268;DHT22;23154;52.542;13.362;2023-02-15T07:36:15;0.90;99.90
37268;DHT22;23154;52.542;13.362;2023-02-15T07:38:40;0.80;99.90
37268;DHT22;23154;52.542;13.362;2023-02-15T07:41:07;1.00;99.90
37268;DHT22;23154;52.542;13.362;2023-02-15T07:43:34;1.10;99.90
37268;DHT22;23154;52.542;13.362;2023-02-15T07:46:00;1.20;99.90
37268;DHT22;23154;52.542;13.362;2023-02-15T07:48:26;1.20;99.90
37268;DHT22;23154;52.542;13.362;2023-02-15T07:50:52;1.20;99.90
37268;DHT22;23154;52.542;13.362;2023-02-15T07:53:17;1.20;99.90
37268;DHT22;23154;52.542;13.362;2023-02-15T07:55:43;1.20;99.90
37268;DHT22;23154;52.542;13.362;2023-02-15T07:58:09;1.20;99.90
37268;DHT22;23154;52.542;13.362;2023-02-15T08:00:34;1.20;99.90
37268;DHT22;23154;52.542;13.362;2023-02-15T08:03:22;1.00;99.90
37268;DHT22;23154;52.542;13.362;2023-02-15T08:05:47;1.10;99.90
37268;DHT22;23154;52.542;13.362;2023-02-15T08:08:13;0.90;99.90
37268;DHT22;23154;52.542;13.362;2023-02-15T08:11:04;0.80;99.90
37268;DHT22;23154;52.542;13.362;2023-02-15T08:13:49;0.80;99.90
37268;DHT22;23154;52.542;13.362;2023-02-15T08:16:22;0.80;99.90
37268;DHT22;23154;52.542;13.362;2023-02-15T08:18:48;0.80;99.90
37268;DHT22;23154;52.542;13.362;2023-02-15T08:21:14;0.60;99.90
37268;DHT22;23154;52.542;13.362;2023-02-15T08:23:39;0.80;99.90
37268;DHT22;23154;52.542;13.362;2023-02-15T08:26:05;1.00;99.90
37268;DHT22;23154;52.542;13.362;2023-02-15T08:28:30;1.20;99.90
37268;DHT22;23154;52.542;13.362;2023-02-15T08:31:03;1.20;99.90
37268;DHT22;23154;52.542;13.362;2023-02-15T08:33:29;1.20;99.90
37268;DHT22;23154;52.542;13.362;2023-02-15T08:35:54;1.40;99.90
37268;DHT22;23154;52.542;13.362;2023-02-15T08:38:20;1.40;99.90
37268;DHT22;23154;52.542;13.362;2023-02-15T08:40:45;1.30;99.90
37268;DHT22;23154;52.542;13.362;2023-02-15T08:43:11;1.50;99.90
37268;DHT22;23154;52.542;13.362;2023-02-15T08:45:36;1.60;99.90
37268;DHT22;23154;52.542;13.362;2023-02-15T08:48:02;1.60;99.90
37268;DHT22;23154;52.542;13.362;2023-02-15T08:50:28;1.80;99.90
37268;DHT22;23154;52.542;13.362;2023-02-15T08:52:53;2.00;99.90
37268;DHT22;23154;52.542;13.362;2023-02-15T08:55:19;1.70;99.90
37268;DHT22;23154;52.542;13.362;2023-02-15T08:57:44;1.90;99.90
37268;DHT22;23154;52.542;13.362;2023-02-15T09:00:11;2.00;99.90
37268;DHT22;23154;52.542;13.362;2023-02-15T09:02:37;1.90;99.90
37268;DHT22;23154;52.542;13.362;2023-02-15T09:05:02;2.00;99.90
37268;DHT22;23154;52.542;13.362;2023-02-15T09:07:28;2.20;99.90
37268;DHT22;23154;52.542;13.362;2023-02-15T09:09:54;2.20;99.90
37268;DHT22;23154;52.542;13.362;2023-02-15T09:12:20;2.10;99.90
37268;DHT22;23154;52.542;13.362;2023-02-15T09:14:45;2.10;99.90
37268;DHT22;23154;52.542;13.362;2023-02-15T09:17:11;2.00;99.90
37268;DHT22;23154;52.542;13.362;2023-02-15T09:19:36;2.20;99.90
37268;DHT22;23154;52.542;13.362;2023-02-15T09:22:02;2.20;99.90
37268;DHT22;23154;52.542;13.362;2023-02-15T09:24:27;2.00;99.90
37268;DHT22;23154;52.542;13.362;2023-02-15T09:26:56;2.00;99.90
37268;DHT22;23154;52.542;13.362;2023-02-15T09:29:22;1.80;99.90
37268;DHT22;23154;52.542;13.362;2023-02-15T09:31:48;2.10;99.90
37268;DHT22;23154;52.542;13.362;2023-02-15T09:34:15;2.50;99.90
37268;DHT22;23154;52.542;13.362;2023-02-15T09:36:42;2.60;99.90
37268;DHT22;23154;52.542;13.362;2023-02-15T09:39:15;2.40;99.90
37268;DHT22;23154;52.542;13.362;2023-02-15T09:57:27;3.30;99.90
37268;DHT22;23154;52.542;13.362;2023-02-15T10:05:26;3.20;99.90
37268;DHT22;23154;52.542;13.362;2023-02-15T10:13:35;2.80;99.90
37268;DHT22;23154;52.542;13.362;2023-02-15T10:18:52;3.10;99.90
37268;DHT22;23154;52.542;13.362;2023-02-15T10:27:03;3.40;99.90
37268;DHT22;23154;52.542;13.362;2023-02-15T10:34:37;3.60;99.90
37268;DHT22;23154;52.542;13.362;2023-02-15T10:37:15;3.50;99.90
37268;DHT22;23154;52.542;13.362;2023-02-15T10:40:07;3.50;99.90
37268;DHT22;23154;52.542;13.362;2023-02-15T11:00:19;4.10;99.90
37268;DHT22;23154;52.542;13.362;2023-02-15T11:07:47;4.30;99.90
37268;DHT22;23154;52.542;13.362;2023-02-15T11:12:48;4.30;99.90
37268;DHT22;23154;52.542;13.362;2023-02-15T11:17:57;4.40;99.90
37268;DHT22;23154;52.542;13.362;2023-02-15T11:20:32;4.50;99.90
37268;DHT22;23154;52.542;13.362;2023-02-15T11:23:00;4.50;99.90
37268;DHT22;23154;52.542;13.362;2023-02-15T11:25:30;4.70;99.90
37268;DHT22;23154;52.542;13.362;2023-02-15T11:27:56;4.80;99.90
37268;DHT22;23154;52.542;13.362;2023-02-15T11:30:23;4.80;99.90
37268;DHT22;23154;52.542;13.362;2023-02-15T11:32:50;4.80;99.90
37268;DHT22;23154;52.542;13.362;2023-02-15T11:35:22;5.00;99.90
37268;DHT22;23154;52.542;13.362;2023-02-15T11:37:51;5.10;99.90
37268;DHT22;23154;52.542;13.362;2023-02-15T11:42:47;5.20;99.90
37268;DHT22;23154;52.542;13.362;2023-02-15T11:47:43;5.10;99.90
37268;DHT22;23154;52.542;13.362;2023-02-15T11:50:14;5.20;99.90
37268;DHT22;23154;52.542;13.362;2023-02-15T11:52:40;5.40;99.90
37268;DHT22;23154;52.542;13.362;2023-02-15T11:55:09;5.50;99.90
37268;DHT22;23154;52.542;13.362;2023-02-15T11:57:38;5.60;99.90
37268;DHT22;23154;52.542;13.362;2023-02-15T12:02:42;5.70;99.90
37268;DHT22;23154;52.542;13.362;2023-02-15T12:05:12;5.90;99.90
37268;DHT22;23154;52.542;13.362;2023-02-15T12:07:42;6.00;99.90
37268;DHT22;23154;52.542;13.362;2023-02-15T12:12:41;6.20;99.90
37268;DHT22;23154;52.542;13.362;2023-02-15T12:15:08;6.30;99.90
37268;DHT22;23154;52.542;13.362;2023-02-15T12:17:38;6.40;99.90
37268;DHT22;23154;52.542;13.362;2023-02-15T12:22:39;6.40;99.90
37268;DHT22;23154;52.542;13.362;2023-02-15T12:25:20;6.40;99.90
37268;DHT22;23154;52.542;13.362;2023-02-15T12:27:46;6.40;99.90
37268;DHT22;23154;52.542;13.362;2023-02-15T12:30:18;6.70;99.90
37268;DHT22;23154;52.542;13.362;2023-02-15T12:35:21;6.80;99.90
37268;DHT22;23154;52.542;13.362;2023-02-15T12:37:53;6.90;99.90
37268;DHT22;23154;52.542;13.362;2023-02-15T12:40:24;7.10;99.90
37268;DHT22;23154;52.542;13.362;2023-02-15T12:42:51;7.00;99.90
37268;DHT22;23154;52.542;13.362;2023-02-15T12:47:48;7.40;99.90
37268;DHT22;23154;52.542;13.362;2023-02-15T12:50:32;7.40;99.90
37268;DHT22;23154;52.542;13.362;2023-02-15T12:53:11;7.40;99.90
37268;DHT22;23154;52.542;13.362;2023-02-15T12:55:38;7.60;99.90
37268;DHT22;23154;52.542;13.362;2023-02-15T12:58:19;7.70;99.90
37268;DHT22;23154;52.542;13.362;2023-02-15T13:00:47;8.00;99.90
37268;DHT22;23154;52.542;13.362;2023-02-15T13:03:16;8.10;99.90
37268;DHT22;23154;52.542;13.362;2023-02-15T13:05:43;8.20;99.90
37268;DHT22;23154;52.542;13.362;2023-02-15T13:10:36;8.30;99.90
37268;DHT22;23154;52.542;13.362;2023-02-15T13:13:05;8.50;99.90
37268;DHT22;23154;52.542;13.362;2023-02-15T13:15:35;8.40;99.90
37268;DHT22;23154;52.542;13.362;2023-02-15T13:18:01;8.70;99.90
37268;DHT22;23154;52.542;13.362;2023-02-15T13:20:27;8.80;99.90
37268;DHT22;23154;52.542;13.362;2023-02-15T13:22:56;8.80;99.90
37268;DHT22;23154;52.542;13.362;2023-02-15T13:25:23;8.70;99.90
37268;DHT22;23154;52.542;13.362;2023-02-15T13:27:54;8.80;99.90
37268;DHT22;23154;52.542;13.362;2023-02-15T13:30:24;8.80;99.90
37268;DHT22;23154;52.542;13.362;2023-02-15T13:32:52;8.90;99.90
37268;DHT22;23154;52.542;13.362;2023-02-15T13:35:19;9.00;99.90
37268;DHT22;23154;52.542;13.362;2023-02-15T13:37:51;8.80;99.90
37268;DHT22;23154;52.542;13.362;2023-02-15T13:43:38;8.90;99.90
37268;DHT22;23154;52.542;13.362;2023-02-15T13:49:13;9.00;99.90
37268;DHT22;23154;52.542;13.362;2023-02-15T14:01:58;9.10;99.90
37268;DHT22;23154;52.542;13.362;2023-02-15T14:17:12;9.10;99.90
37268;DHT22;23154;52.542;13.362;2023-02-15T14:19:44;9.30;99.90
37268;DHT22;23154;52.542;13.362;2023-02-15T14:22:18;9.30;99.90
37268;DHT22;23154;52.542;13.362;2023-02-15T14:24:53;9.30;99.90
37268;DHT22;23154;52.542;13.362;2023-02-15T14:35:54;9.60;99.90
37268;DHT22;23154;52.542;13.362;2023-02-15T14:45:54;9.30;99.90
37268;DHT22;23154;52.542;13.362;2023-02-15T14:48:21;9.30;99.90
37268;DHT22;23154;52.542;13.362;2023-02-15T14:50:50;9.30;99.90
37268;DHT22;23154;52.542;13.362;2023-02-15T14:55:42;9.10;99.90
37268;DHT22;23154;52.542;13.362;2023-02-15T14:58:10;9.10;99.90
37268;DHT22;23154;52.542;13.362;2023-02-15T15:00:38;9.10;99.90
37268;DHT22;23154;52.542;13.362;2023-02-15T15:03:25;9.10;99.90
37268;DHT22;23154;52.542;13.362;2023-02-15T15:05:51;9.10;99.90
37268;DHT22;23154;52.542;13.362;2023-02-15T15:08:34;9.10;99.90
37268;DHT22;23154;52.542;13.362;2023-02-15T15:13:58;9.10;99.90
37268;DHT22;23154;52.542;13.362;2023-02-15T15:16:27;9.00;99.90
37268;DHT22;23154;52.542;13.362;2023-02-15T15:18:53;8.90;99.90
37268;DHT22;23154;52.542;13.362;2023-02-15T15:24:04;8.80;99.90
37268;DHT22;23154;52.542;13.362;2023-02-15T15:26:31;8.80;99.90
37268;DHT22;23154;52.542;13.362;2023-02-15T15:28:59;8.70;99.90
37268;DHT22;23154;52.542;13.362;2023-02-15T15:39:16;8.50;99.90
37268;DHT22;23154;52.542;13.362;2023-02-15T15:44:45;8.40;99.90
37268;DHT22;23154;52.542;13.362;2023-02-15T15:49:34;8.30;99.90
37268;DHT22;23154;52.542;13.362;2023-02-15T15:52:02;8.20;99.90
37268;DHT22;23154;52.542;13.362;2023-02-15T15:54:28;8.10;99.90
37268;DHT22;23154;52.542;13.362;2023-02-15T15:56:58;8.00;99.90
37268;DHT22;23154;52.542;13.362;2023-02-15T15:59:29;7.80;99.90
37268;DHT22;23154;52.542;13.362;2023-02-15T16:01:56;7.60;99.90
37268;DHT22;23154;52.542;13.362;2023-02-15T16:04:29;7.60;99.90
37268;DHT22;23154;52.542;13.362;2023-02-15T16:06:55;7.40;99.90
37268;DHT22;23154;52.542;13.362;2023-02-15T16:09:23;7.30;99.90
37268;DHT22;23154;52.542;13.362;2023-02-15T16:11:58;7.20;99.90
37268;DHT22;23154;52.542;13.362;2023-02-15T16:14:36;7.10;99.90
37268;DHT22;23154;52.542;13.362;2023-02-15T16:17:06;7.00;99.90
37268;DHT22;23154;52.542;13.362;2023-02-15T16:19:33;6.90;99.90
37268;DHT22;23154;52.542;13.362;2023-02-15T16:22:01;6.80;99.90
37268;DHT22;23154;52.542;13.362;2023-02-15T16:27:14;6.80;99.90
37268;DHT22;23154;52.542;13.362;2023-02-15T16:29:43;6.70;99.90
37268;DHT22;23154;52.542;13.362;2023-02-15T16:32:25;6.60;99.90
37268;DHT22;23154;52.542;13.362;2023-02-15T16:34:55;6.70;99.90
37268;DHT22;23154;52.542;13.362;2023-02-15T16:37:22;6.70;99.90
37268;DHT22;23154;52.542;13.362;2023-02-15T16:39:49;6.60;99.90
37268;DHT22;23154;52.542;13.362;2023-02-15T16:42:14;6.60;99.90
37268;DHT22;23154;52.542;13.362;2023-02-15T16:44:44;6.70;99.90
37268;DHT22;23154;52.542;13.362;2023-02-15T16:47:15;6.50;99.90
37268;DHT22;23154;52.542;13.362;2023-02-15T16:49:44;6.50;99.90
37268;DHT22;23154;52.542;13.362;2023-02-15T16:52:11;6.50;99.90
37268;DHT22;23154;52.542;13.362;2023-02-15T16:54:41;6.40;99.90
37268;DHT22;23154;52.542;13.362;2023-02-15T16:57:18;6.20;99.90
37268;DHT22;23154;52.542;13.362;2023-02-15T16:59:46;6.00;99.90
37268;DHT22;23154;52.542;13.362;2023-02-15T17:02:21;6.00;99.90
37268;DHT22;23154;52.542;13.362;2023-02-15T17:07:26;6.20;99.90
37268;DHT22;23154;52.542;13.362;2023-02-15T17:09:53;6.20;99.90
37268;DHT22;23154;52.542;13.362;2023-02-15T17:15:03;6.40;99.90
37268;DHT22;23154;52.542;13.362;2023-02-15T17:17:30;6.30;99.90
37268;DHT22;23154;52.542;13.362;2023-02-15T17:19:56;6.20;99.90
37268;DHT22;23154;52.542;13.362;2023-02-15T17:22:23;6.20;99.90
37268;DHT22;23154;52.542;13.362;2023-02-15T17:24:50;6.10;99.90
37268;DHT22;23154;52.542;13.362;2023-02-15T17:27:20;6.10;99.90
37268;DHT22;23154;52.542;13.362;2023-02-15T17:29:50;6.10;99.90
37268;DHT22;23154;52.542;13.362;2023-02-15T17:32:18;6.00;99.90
37268;DHT22;23154;52.542;13.362;2023-02-15T17:35:05;5.80;99.90
37268;DHT22;23154;52.542;13.362;2023-02-15T17:40:07;5.60;99.90
37268;DHT22;23154;52.542;13.362;2023-02-15T17:42:39;5.60;99.90
37268;DHT22;23154;52.542;13.362;2023-02-15T17:45:05;5.70;99.90
37268;DHT22;23154;52.542;13.362;2023-02-15T17:47:30;5.60;99.90
37268;DHT22;23154;52.542;13.362;2023-02-15T17:49:56;5.50;99.90
37268;DHT22;23154;52.542;13.362;2023-02-15T17:52:22;5.30;99.90
37268;DHT22;23154;52.542;13.362;2023-02-15T17:54:48;5.30;99.90
37268;DHT22;23154;52.542;13.362;2023-02-15T17:57:32;5.20;99.90
37268;DHT22;23154;52.542;13.362;2023-02-15T17:59:58;5.50;99.90
37268;DHT22;23154;52.542;13.362;2023-02-15T18:02:42;5.60;99.90
37268;DHT22;23154;52.542;13.362;2023-02-15T18:05:26;5.60;99.90
37268;DHT22;23154;52.542;13.362;2023-02-15T18:08:12;5.70;99.90
37268;DHT22;23154;52.542;13.362;2023-02-15T18:10:56;5.70;99.90
37268;DHT22;23154;52.542;13.362;2023-02-15T18:13:41;5.50;99.90
37268;DHT22;23154;52.542;13.362;2023-02-15T18:16:10;5.60;99.90
37268;DHT22;23154;52.542;13.362;2023-02-15T18:18:37;5.60;99.90
37268;DHT22;23154;52.542;13.362;2023-02-15T18:21:03;5.40;99.90
37268;DHT22;23154;52.542;13.362;2023-02-15T18:23:28;5.30;99.90
37268;DHT22;23154;52.542;13.362;2023-02-15T18:25:55;5.10;99.90
37268;DHT22;23154;52.542;13.362;2023-02-15T18:28:21;5.10;99.90
37268;DHT22;23154;52.542;13.362;2023-02-15T18:30:46;5.10;99.90
37268;DHT22;23154;52.542;13.362;2023-02-15T18:33:28;5.10;99.90
37268;DHT22;23154;52.542;13.362;2023-02-15T18:35:55;5.10;99.90
37268;DHT22;23154;52.542;13.362;2023-02-15T18:38:21;5.10;99.90
37268;DHT22;23154;52.542;13.362;2023-02-15T18:40:46;5.00;99.90
37268;DHT22;23154;52.542;13.362;2023-02-15T18:43:14;5.00;99.90
37268;DHT22;23154;52.542;13.362;2023-02-15T18:45:39;4.90;99.90